Terminal Aerodrome Forecast
Issued by NWS

Current Version | Previous Version | Text Only | Print | Product List | Glossary On
Versions: 1 2 3 4 5 6 7 8 9 10 11 12 13
000
FTUS42 KGSP 011744 AAA
TAFAND
TAF AMD
KAND 011744Z 0118/0218 18005KT P6SM BKN040
     FM012000 18008KT P6SM OVC020
     FM012200 17007KT P6SM -SHRA OVC020
     FM020400 19012KT 2SM -SHRA BR OVC007
     FM021000 23013G20KT 5SM -SHRA BR OVC020
     FM021300 25015G25KT P6SM BKN060=

USA.gov is the U.S. government's official web portal to all federal, state and local government web resources and services.